Main page
METAR-TAF:

METAR-TAF

Airports :

Zahedan Airport

Zahedan, Iran

latitude: 29-28N, longitude: 060-53E, elevation: 1370 m

Current weather observation

The report was made 34 minutes ago, at 07:30 UTC
Wind 10 kt from the North
Temperature 9°C
Humidity 23%
Pressure 1022 hPa
Visibility: 8000 m

METAR: OIZH 200730Z 01010KT 8000 NSC 09/M11 Q1021 A3017

Time: 11:34 (08:04 UTC)

Forecast

The report was made 2 hours and 34 minutes ago, at 05:30 UTC
Forecast valid from 20 at 06 UTC to 21 at 12 UTC
Wind 10 kt from the Northwest
Visibility: 7000 m
Temporary
from 20 at 09 UTC to 20 at 16 UTC
Wind 18 kt from the North/Northwest with gusts up to 30 kt
Visibility: 4000 m
sand
Temporary
from 21 at 09 UTC to 21 at 12 UTC
Wind 18 kt from the North/Northwest with gusts up to 30 kt
Visibility: 3000 m
sand

TAF: OIZH 200530Z 2006/2112 32010KT 7000 NSC TEMPO 2009/2016 34018G30KT 4000 SA TEMPO 2109/2112 340018G30KT 3000 SA

Weather observations and forecasts of more than 4000 airports (METAR and TAF reports).

The available stations are represented by yellow and red dots on the map.

Hover mouse over dot to see the name of the station.

Then click to see weather observations and forecasts.

To change the map : click on the green buttons with a black cross to zoom in, on the green button with a dash to zoom out, or on the green arrows for adjacent maps.


METAR-TAF: